Time,TemperatureF,DewpointF,PressureIn,WindDirection,WindDirectionDegrees,WindSpeedMPH,WindSpeedGustMPH,Humidity,HourlyPrecipIn,Conditions,Clouds,dailyrainin,SoftwareType,DateUTC
2013-02-03 00:00:00,20.4,15.5,30.03,SSW,194,0.0,0.0,81,0.00,,,0.00,Wunderground v.1.15,2013-02-03 05:00:00,
2013-02-03 00:05:00,20.3,15.4,30.03,SSW,194,0.0,0.0,81,0.00,,,0.00,Wunderground v.1.15,2013-02-03 05:05:00,
2013-02-03 00:10:00,20.3,15.4,30.03,SSW,194,0.0,0.0,81,0.00,,,0.00,Wunderground v.1.15,2013-02-03 05:10:00,
2013-02-03 00:15:00,20.3,15.4,30.03,SSW,194,0.0,0.0,81,0.00,,,0.00,Wunderground v.1.15,2013-02-03 05:15:00,
2013-02-03 00:20:00,20.3,15.4,30.03,SSW,194,0.0,0.0,81,0.00,,,0.00,Wunderground v.1.15,2013-02-03 05:20:00,
2013-02-03 00:25:00,20.3,15.7,30.04,SSW,194,0.0,0.0,82,0.00,,,0.00,Wunderground v.1.15,2013-02-03 05:25:00,
2013-02-03 00:30:00,20.3,15.7,30.03,SSW,194,0.0,0.0,82,0.00,,,0.00,Wunderground v.1.15,2013-02-03 05:30:00,
2013-02-03 00:35:00,20.3,15.7,30.04,SSW,194,0.0,0.0,82,0.00,,,0.00,Wunderground v.1.15,2013-02-03 05:35:00,
2013-02-03 00:45:00,20.3,15.7,30.03,SSW,194,0.0,0.0,82,0.00,,,0.00,Wunderground v.1.15,2013-02-03 05:45:00,
2013-02-03 00:50:00,20.2,15.6,30.03,SSW,194,0.0,0.0,82,0.00,,,0.00,Wunderground v.1.15,2013-02-03 05:50:00,
2013-02-03 01:00:00,20.2,15.9,30.03,SSW,194,0.0,0.0,83,0.00,,,0.00,Wunderground v.1.15,2013-02-03 06:00:00,
2013-02-03 01:05:00,20.1,15.8,30.03,SSW,194,0.0,0.0,83,0.00,,,0.00,Wunderground v.1.15,2013-02-03 06:05:00,
2013-02-03 01:15:00,20.1,15.8,30.03,SSW,194,0.0,0.0,83,0.00,,,0.00,Wunderground v.1.15,2013-02-03 06:15:00,
2013-02-03 01:25:00,20.1,16.0,30.03,SSW,194,0.0,0.0,84,0.00,,,0.00,Wunderground v.1.15,2013-02-03 06:25:00,
2013-02-03 01:30:00,20.1,15.8,30.02,SSW,194,0.0,0.0,83,0.00,,,0.00,Wunderground v.1.15,2013-02-03 06:30:00,
2013-02-03 01:35:00,20.1,16.0,30.02,SSW,194,0.0,0.0,84,0.00,,,0.00,Wunderground v.1.15,2013-02-03 06:35:00,
2013-02-03 01:45:00,20.0,15.9,30.03,SSW,194,0.0,0.0,84,0.00,,,0.00,Wunderground v.1.15,2013-02-03 06:45:00,
2013-02-03 01:55:00,19.9,15.8,30.03,SSW,194,0.0,0.0,84,0.00,,,0.00,Wunderground v.1.15,2013-02-03 06:55:00,
2013-02-03 02:00:00,19.9,15.8,30.02,SSW,194,0.0,0.0,84,0.00,,,0.00,Wunderground v.1.15,2013-02-03 07:00:00,
2013-02-03 02:05:00,19.8,15.7,30.02,SSW,194,0.0,0.0,84,0.00,,,0.00,Wunderground v.1.15,2013-02-03 07:05:00,
2013-02-03 02:15:00,19.7,15.9,30.02,SSW,194,0.0,0.0,85,0.00,,,0.00,Wunderground v.1.15,2013-02-03 07:15:00,
2013-02-03 02:20:00,19.7,15.9,30.02,SSW,194,0.0,0.0,85,0.00,,,0.00,Wunderground v.1.15,2013-02-03 07:20:00,
2013-02-03 02:30:00,19.7,15.9,30.02,SSW,194,0.0,0.0,85,0.00,,,0.00,Wunderground v.1.15,2013-02-03 07:30:00,
2013-02-03 02:35:00,19.7,15.9,30.02,SSW,194,0.0,0.0,85,0.00,,,0.00,Wunderground v.1.15,2013-02-03 07:35:00,
2013-02-03 02:45:00,19.5,16.0,30.01,SSW,194,0.0,0.0,86,0.00,,,0.00,Wunderground v.1.15,2013-02-03 07:45:00,
2013-02-03 02:50:00,19.4,15.9,30.01,SSW,194,0.0,0.0,86,0.00,,,0.00,Wunderground v.1.15,2013-02-03 07:50:00,
2013-02-03 03:00:00,19.2,15.7,30.01,SSW,194,0.0,0.0,86,0.00,,,0.00,Wunderground v.1.15,2013-02-03 08:00:00,
2013-02-03 03:05:00,19.1,15.6,30.01,SSW,194,0.0,0.0,86,0.00,,,0.00,Wunderground v.1.15,2013-02-03 08:05:00,
2013-02-03 03:15:00,19.0,15.5,30.00,SSW,194,0.0,0.0,86,0.00,,,0.00,Wunderground v.1.15,2013-02-03 08:15:00,
2013-02-03 03:20:00,19.0,15.8,30.00,SSW,194,0.0,0.0,87,0.00,,,0.00,Wunderground v.1.15,2013-02-03 08:20:00,
2013-02-03 03:30:00,19.0,15.8,30.00,SSW,194,0.0,0.0,87,0.00,,,0.00,Wunderground v.1.15,2013-02-03 08:30:00,
2013-02-03 03:35:00,19.0,15.8,30.00,SSW,194,0.0,0.0,87,0.00,,,0.00,Wunderground v.1.15,2013-02-03 08:35:00,
2013-02-03 03:45:00,19.0,15.8,30.00,SSW,194,0.0,0.0,87,0.00,,,0.00,Wunderground v.1.15,2013-02-03 08:45:00,
2013-02-03 03:50:00,18.9,15.7,29.99,SSW,194,0.0,0.0,87,0.00,,,0.00,Wunderground v.1.15,2013-02-03 08:50:00,
2013-02-03 04:00:00,18.8,15.6,29.99,SSW,194,0.0,0.0,87,0.00,,,0.00,Wunderground v.1.15,2013-02-03 09:00:00,
2013-02-03 04:05:00,18.6,15.4,29.99,SSW,194,0.0,0.0,87,0.00,,,0.00,Wunderground v.1.15,2013-02-03 09:05:00,
2013-02-03 04:15:00,18.4,15.2,29.99,SSW,194,0.0,0.0,87,0.00,,,0.00,Wunderground v.1.15,2013-02-03 09:15:00,
2013-02-03 04:20:00,18.1,14.9,29.99,SSW,194,0.0,0.0,87,0.00,,,0.00,Wunderground v.1.15,2013-02-03 09:20:00,
2013-02-03 04:30:00,17.7,14.5,29.99,SSW,194,0.0,0.0,87,0.00,,,0.00,Wunderground v.1.15,2013-02-03 09:30:00,
2013-02-03 04:35:00,17.6,14.7,29.99,SSW,194,0.0,0.0,88,0.00,,,0.00,Wunderground v.1.15,2013-02-03 09:35:00,
2013-02-03 04:45:00,17.1,14.2,29.99,SSW,194,0.0,0.0,88,0.00,,,0.00,Wunderground v.1.15,2013-02-03 09:45:00,
2013-02-03 04:50:00,17.1,14.2,29.99,SSW,194,0.0,0.0,88,0.00,,,0.00,Wunderground v.1.15,2013-02-03 09:50:00,
2013-02-03 04:55:00,16.9,14.2,29.99,SSW,194,0.0,0.0,89,0.00,,,0.00,Wunderground v.1.15,2013-02-03 09:55:00,
2013-02-03 05:05:00,16.6,13.9,29.99,SSW,194,0.0,0.0,89,0.00,,,0.00,Wunderground v.1.15,2013-02-03 10:05:00,
2013-02-03 05:15:00,16.6,13.9,29.99,SSW,194,0.0,0.0,89,0.00,,,0.00,Wunderground v.1.15,2013-02-03 10:15:00,
2013-02-03 05:20:00,16.5,14.1,29.99,SSW,194,0.0,0.0,90,0.00,,,0.00,Wunderground v.1.15,2013-02-03 10:20:00,
2013-02-03 05:30:00,16.4,14.0,29.99,SSW,194,0.0,0.0,90,0.00,,,0.00,Wunderground v.1.15,2013-02-03 10:30:00,
2013-02-03 05:35:00,16.3,13.9,29.98,SSW,194,0.0,0.0,90,0.00,,,0.00,Wunderground v.1.15,2013-02-03 10:35:00,
2013-02-03 05:45:00,16.2,13.8,29.98,SSW,194,0.0,0.0,90,0.00,,,0.00,Wunderground v.1.15,2013-02-03 10:45:00,
2013-02-03 05:50:00,16.1,13.7,29.98,SSW,194,0.0,0.0,90,0.00,,,0.00,Wunderground v.1.15,2013-02-03 10:50:00,
2013-02-03 06:00:00,15.9,13.5,29.98,SSW,194,0.0,0.0,90,0.00,,,0.00,Wunderground v.1.15,2013-02-03 11:00:00,
2013-02-03 06:05:00,15.8,13.4,29.98,SSW,194,0.0,0.0,90,0.00,,,0.00,Wunderground v.1.15,2013-02-03 11:05:00,
2013-02-03 06:15:00,15.3,12.9,29.98,SSW,194,0.0,0.0,90,0.00,,,0.00,Wunderground v.1.15,2013-02-03 11:15:00,
2013-02-03 06:20:00,15.1,12.9,29.98,SSW,194,0.0,0.0,91,0.00,,,0.00,Wunderground v.1.15,2013-02-03 11:20:00,
2013-02-03 06:25:00,15.0,12.8,29.99,SSW,194,0.0,0.0,91,0.00,,,0.00,Wunderground v.1.15,2013-02-03 11:25:00,
2013-02-03 06:35:00,14.8,12.6,29.98,SSW,194,0.0,0.0,91,0.00,,,0.00,Wunderground v.1.15,2013-02-03 11:35:00,
2013-02-03 06:40:00,14.6,12.5,29.99,SSW,194,0.0,0.0,91,0.00,,,0.00,Wunderground v.1.15,2013-02-03 11:40:00,
2013-02-03 06:50:00,14.4,12.3,29.99,SSW,194,0.0,0.0,91,0.00,,,0.00,Wunderground v.1.15,2013-02-03 11:50:00,
2013-02-03 06:55:00,14.3,12.2,29.99,SSW,194,0.0,0.0,91,0.00,,,0.00,Wunderground v.1.15,2013-02-03 11:55:00,
2013-02-03 07:00:00,14.3,12.2,29.98,SSW,194,0.0,0.0,91,0.00,,,0.00,Wunderground v.1.15,2013-02-03 12:00:00,
2013-02-03 07:05:00,14.2,12.1,29.98,SSW,194,0.0,0.0,91,0.00,,,0.00,Wunderground v.1.15,2013-02-03 12:05:00,
2013-02-03 07:15:00,13.9,11.8,29.98,SSW,194,0.0,0.0,91,0.00,,,0.00,Wunderground v.1.15,2013-02-03 12:15:00,
2013-02-03 07:20:00,13.8,11.7,29.98,SSW,194,0.0,0.0,91,0.00,,,0.00,Wunderground v.1.15,2013-02-03 12:20:00,
2013-02-03 07:25:00,13.7,11.6,29.98,SSW,194,0.0,0.0,91,0.00,,,0.00,Wunderground v.1.15,2013-02-03 12:25:00,
2013-02-03 07:35:00,13.5,11.4,29.98,SSW,194,0.0,0.0,91,0.00,,,0.00,Wunderground v.1.15,2013-02-03 12:35:00,
2013-02-03 07:40:00,13.5,11.4,29.98,SSW,194,0.0,0.0,91,0.00,,,0.00,Wunderground v.1.15,2013-02-03 12:40:00,
2013-02-03 07:50:00,13.6,11.5,29.98,SSW,194,0.0,0.0,91,0.00,,,0.00,Wunderground v.1.15,2013-02-03 12:50:00,
2013-02-03 07:55:00,14.5,12.8,29.98,ENE,60,0.0,0.0,93,0.00,,,0.00,Wunderground v.1.15,2013-02-03 12:55:00,
2013-02-03 08:00:00,15.3,13.4,29.98,ENE,60,0.0,0.0,92,0.00,,,0.00,Wunderground v.1.15,2013-02-03 13:00:00,
2013-02-03 08:05:00,16.0,14.1,29.98,ENE,60,0.0,0.0,92,0.00,,,0.00,Wunderground v.1.15,2013-02-03 13:05:00,
2013-02-03 08:15:00,17.2,14.8,29.98,ENE,58,0.0,0.0,90,0.00,,,0.00,Wunderground v.1.15,2013-02-03 13:15:00,
2013-02-03 08:20:00,17.6,14.9,29.98,ENE,58,0.0,0.0,89,0.00,,,0.00,Wunderground v.1.15,2013-02-03 13:20:00,
2013-02-03 08:30:00,18.3,15.1,29.98,ENE,57,0.0,0.0,87,0.00,,,0.00,Wunderground v.1.15,2013-02-03 13:30:00,
2013-02-03 08:40:00,18.9,15.4,29.98,East,97,0.0,1.0,86,0.00,,,0.00,Wunderground v.1.15,2013-02-03 13:40:00,
2013-02-03 08:45:00,19.4,15.6,29.98,East,96,0.0,1.0,85,0.00,,,0.00,Wunderground v.1.15,2013-02-03 13:45:00,
2013-02-03 08:50:00,19.7,15.6,29.98,NE,55,1.0,1.0,84,0.00,,,0.00,Wunderground v.1.15,2013-02-03 13:50:00,
2013-02-03 09:00:00,20.3,15.7,29.98,NNE,14,1.0,2.0,82,0.00,,,0.00,Wunderground v.1.15,2013-02-03 14:00:00,
2013-02-03 09:05:00,20.5,15.6,29.98,ENE,72,1.0,2.0,81,0.00,,,0.00,Wunderground v.1.15,2013-02-03 14:05:00,
2013-02-03 09:15:00,21.1,15.6,29.98,NNE,13,1.0,3.0,79,0.00,,,0.00,Wunderground v.1.15,2013-02-03 14:15:00,
2013-02-03 09:20:00,21.3,15.5,29.98,NNE,15,1.0,1.0,78,0.00,,,0.00,Wunderground v.1.15,2013-02-03 14:20:00,
2013-02-03 09:30:00,21.9,15.8,29.98,South,176,1.0,1.0,77,0.00,,,0.00,Wunderground v.1.15,2013-02-03 14:30:00,
2013-02-03 09:40:00,22.5,15.8,29.97,NNE,26,1.0,1.0,75,0.00,,,0.00,Wunderground v.1.15,2013-02-03 14:40:00,
2013-02-03 09:45:00,22.5,15.5,29.97,NNE,30,1.0,1.0,74,0.00,,,0.00,Wunderground v.1.15,2013-02-03 14:45:00,
2013-02-03 09:55:00,22.4,15.1,29.96,ENE,71,2.0,4.0,73,0.00,,,0.00,Wunderground v.1.15,2013-02-03 14:55:00,
2013-02-03 10:00:00,22.7,15.3,29.96,North,349,1.0,1.0,73,0.00,,,0.00,Wunderground v.1.15,2013-02-03 15:00:00,
2013-02-03 10:05:00,23.3,15.6,29.96,South,169,1.0,3.0,72,0.00,,,0.00,Wunderground v.1.15,2013-02-03 15:05:00,
2013-02-03 10:15:00,23.9,15.9,29.95,SE,142,1.0,2.0,71,0.00,,,0.00,Wunderground v.1.15,2013-02-03 15:15:00,
2013-02-03 10:25:00,24.4,15.7,29.95,NNE,26,1.0,4.0,69,0.00,,,0.00,Wunderground v.1.15,2013-02-03 15:25:00,
2013-02-03 10:35:00,24.9,15.5,29.95,ENE,76,1.0,3.0,67,0.00,,,0.00,Wunderground v.1.15,2013-02-03 15:35:00,
2013-02-03 10:40:00,24.9,14.8,29.95,NE,43,1.0,2.0,65,0.00,,,0.00,Wunderground v.1.15,2013-02-03 15:40:00,
2013-02-03 10:45:00,24.8,15.0,29.94,SSE,153,2.0,2.0,66,0.00,,,0.00,Wunderground v.1.15,2013-02-03 15:45:00,
2013-02-03 10:55:00,25.2,15.1,29.94,NNE,13,1.0,6.0,65,0.00,,,0.00,Wunderground v.1.15,2013-02-03 15:55:00,
2013-02-03 11:00:00,25.5,15.4,29.93,NNE,33,1.0,2.0,65,0.00,,,0.00,Wunderground v.1.15,2013-02-03 16:00:00,
2013-02-03 11:05:00,25.8,15.6,29.93,NNE,15,2.0,2.0,65,0.00,,,0.00,Wunderground v.1.15,2013-02-03 16:05:00,
2013-02-03 11:15:00,26.1,14.8,29.92,ENE,65,2.0,3.0,62,0.00,,,0.00,Wunderground v.1.15,2013-02-03 16:15:00,
2013-02-03 11:20:00,26.5,14.9,29.92,NNW,348,1.0,3.0,61,0.00,,,0.00,Wunderground v.1.15,2013-02-03 16:20:00,
2013-02-03 11:25:00,26.3,14.3,29.92,SE,146,2.0,3.0,60,0.00,,,0.00,Wunderground v.1.15,2013-02-03 16:25:00,
2013-02-03 11:30:00,26.3,14.7,29.92,ENE,75,3.0,3.0,61,0.00,,,0.00,Wunderground v.1.15,2013-02-03 16:30:00,
2013-02-03 11:40:00,26.2,14.6,29.91,South,173,2.0,4.0,61,0.00,,,0.00,Wunderground v.1.15,2013-02-03 16:40:00,
2013-02-03 11:45:00,25.8,14.2,29.91,SE,146,2.0,4.0,61,0.00,,,0.00,Wunderground v.1.15,2013-02-03 16:45:00,
2013-02-03 11:55:00,25.6,13.6,29.90,South,169,1.0,2.0,60,0.00,,,0.00,Wunderground v.1.15,2013-02-03 16:55:00,
2013-02-03 12:00:00,25.6,14.0,29.90,SSE,155,0.0,0.0,61,0.00,,,0.00,Wunderground v.1.15,2013-02-03 17:00:00,
2013-02-03 12:05:00,25.5,13.9,29.90,SSE,160,1.0,1.0,61,0.00,,,0.00,Wunderground v.1.15,2013-02-03 17:05:00,
2013-02-03 12:15:00,25.9,14.3,29.89,NNE,29,1.0,1.0,61,0.00,,,0.00,Wunderground v.1.15,2013-02-03 17:15:00,
2013-02-03 12:20:00,26.5,14.5,29.88,SSE,156,1.0,5.0,60,0.00,,,0.00,Wunderground v.1.15,2013-02-03 17:20:00,
2013-02-03 12:30:00,27.2,14.8,29.88,NW,308,2.0,2.0,59,0.00,,,0.00,Wunderground v.1.15,2013-02-03 17:30:00,
2013-02-03 12:40:00,26.9,14.1,29.87,North,360,3.0,3.0,58,0.00,,,0.00,Wunderground v.1.15,2013-02-03 17:40:00,
2013-02-03 12:45:00,26.3,13.9,29.87,North,5,3.0,5.0,59,0.00,,,0.00,Wunderground v.1.15,2013-02-03 17:45:00,
2013-02-03 12:50:00,26.0,13.6,29.86,NNW,348,2.0,6.0,59,0.00,,,0.00,Wunderground v.1.15,2013-02-03 17:50:00,
2013-02-03 13:00:00,25.6,14.0,29.85,North,355,2.0,3.0,61,0.00,,,0.00,Wunderground v.1.15,2013-02-03 18:00:00,
2013-02-03 13:05:00,25.7,13.7,29.84,North,350,2.0,3.0,60,0.00,,,0.00,Wunderground v.1.15,2013-02-03 18:05:00,
2013-02-03 13:15:00,25.8,13.8,29.84,North,11,1.0,2.0,60,0.00,,,0.00,Wunderground v.1.15,2013-02-03 18:15:00,
2013-02-03 13:20:00,26.1,14.1,29.83,North,9,1.0,1.0,60,0.00,,,0.00,Wunderground v.1.15,2013-02-03 18:20:00,
2013-02-03 13:30:00,27.0,14.9,29.83,SSE,150,1.0,2.0,60,0.00,,,0.00,Wunderground v.1.15,2013-02-03 18:30:00,
2013-02-03 13:35:00,27.8,15.3,29.83,SSE,166,2.0,2.0,59,0.00,,,0.00,Wunderground v.1.15,2013-02-03 18:35:00,
2013-02-03 13:40:00,28.2,14.9,29.82,SSE,166,1.0,1.0,57,0.00,,,0.00,Wunderground v.1.15,2013-02-03 18:40:00,
2013-02-03 13:45:00,28.3,15.0,29.83,SSE,168,0.0,1.0,57,0.00,,,0.00,Wunderground v.1.15,2013-02-03 18:45:00,
2013-02-03 13:55:00,27.8,13.7,29.82,ENE,57,1.0,2.0,55,0.00,,,0.00,Wunderground v.1.15,2013-02-03 18:55:00,
2013-02-03 14:00:00,27.5,13.8,29.82,ENE,57,1.0,1.0,56,0.00,,,0.00,Wunderground v.1.15,2013-02-03 19:00:00,
2013-02-03 14:05:00,27.4,14.1,29.81,ENE,58,0.0,1.0,57,0.00,,,0.00,Wunderground v.1.15,2013-02-03 19:05:00,
2013-02-03 14:15:00,27.4,14.1,29.81,NNE,29,1.0,2.0,57,0.00,,,0.00,Wunderground v.1.15,2013-02-03 19:15:00,
2013-02-03 14:25:00,27.5,14.2,29.81,SSE,151,1.0,1.0,57,0.00,,,0.00,Wunderground v.1.15,2013-02-03 19:25:00,
2013-02-03 14:30:00,27.5,14.2,29.81,SSE,151,1.0,1.0,57,0.00,,,0.00,Wunderground v.1.15,2013-02-03 19:30:00,
2013-02-03 14:40:00,27.6,14.3,29.82,SSE,151,0.0,0.0,57,0.00,,,0.00,Wunderground v.1.15,2013-02-03 19:40:00,
2013-02-03 14:45:00,27.6,14.3,29.81,SSE,150,0.0,0.0,57,0.00,,,0.00,Wunderground v.1.15,2013-02-03 19:45:00,
2013-02-03 14:55:00,27.4,14.1,29.81,NE,53,0.0,2.0,57,0.00,,,0.00,Wunderground v.1.15,2013-02-03 19:55:00,
2013-02-03 15:00:00,27.3,14.5,29.81,NNE,20,0.0,0.0,58,0.00,,,0.00,Wunderground v.1.15,2013-02-03 20:00:00,
2013-02-03 15:05:00,27.1,14.3,29.81,NNE,20,0.0,0.0,58,0.00,,,0.00,Wunderground v.1.15,2013-02-03 20:05:00,
2013-02-03 15:15:00,27.2,14.4,29.80,NNE,19,0.0,0.0,58,0.00,,,0.00,Wunderground v.1.15,2013-02-03 20:15:00,
2013-02-03 15:25:00,27.2,14.4,29.80,SSE,148,0.0,0.0,58,0.00,,,0.00,Wunderground v.1.15,2013-02-03 20:25:00,
2013-02-03 15:30:00,27.2,14.4,29.80,NNW,340,0.0,1.0,58,0.00,,,0.00,Wunderground v.1.15,2013-02-03 20:30:00,
2013-02-03 15:40:00,27.1,14.3,29.80,NNW,340,0.0,0.0,58,0.00,,,0.00,Wunderground v.1.15,2013-02-03 20:40:00,
2013-02-03 15:45:00,27.1,14.7,29.80,NNW,340,0.0,0.0,59,0.00,,,0.00,Wunderground v.1.15,2013-02-03 20:45:00,
2013-02-03 15:55:00,27.2,14.8,29.79,NNW,340,0.0,0.0,59,0.00,,,0.00,Wunderground v.1.15,2013-02-03 20:55:00,
2013-02-03 16:00:00,27.2,14.8,29.79,NNE,28,0.0,0.0,59,0.00,,,0.00,Wunderground v.1.15,2013-02-03 21:00:00,
2013-02-03 16:05:00,27.2,15.1,29.79,NNE,28,0.0,0.0,60,0.00,,,0.00,Wunderground v.1.15,2013-02-03 21:05:00,
2013-02-03 16:15:00,27.1,14.7,29.79,NNE,28,0.0,0.0,59,0.00,,,0.00,Wunderground v.1.15,2013-02-03 21:15:00,
2013-02-03 16:25:00,27.0,14.9,29.79,NNE,28,0.0,0.0,60,0.00,,,0.00,Wunderground v.1.15,2013-02-03 21:25:00,
2013-02-03 16:35:00,26.8,14.8,29.79,NNE,28,0.0,0.0,60,0.00,,,0.00,Wunderground v.1.15,2013-02-03 21:35:00,
2013-02-03 16:40:00,26.7,14.7,29.78,NNE,28,0.0,0.0,60,0.00,,,0.00,Wunderground v.1.15,2013-02-03 21:40:00,
2013-02-03 16:45:00,26.7,14.7,29.78,NNE,28,0.0,0.0,60,0.00,,,0.00,Wunderground v.1.15,2013-02-03 21:45:00,
2013-02-03 16:55:00,26.5,14.9,29.78,NNE,28,0.0,0.0,61,0.00,,,0.00,Wunderground v.1.15,2013-02-03 21:55:00,
2013-02-03 17:00:00,26.4,14.8,29.78,NNE,28,0.0,0.0,61,0.00,,,0.00,Wunderground v.1.15,2013-02-03 22:00:00,
2013-02-03 17:05:00,26.3,14.7,29.78,NNE,28,0.0,0.0,61,0.00,,,0.00,Wunderground v.1.15,2013-02-03 22:05:00,
2013-02-03 17:15:00,26.2,14.9,29.77,NNE,28,0.0,0.0,62,0.00,,,0.00,Wunderground v.1.15,2013-02-03 22:15:00,
2013-02-03 17:20:00,26.2,14.9,29.77,NNE,28,0.0,0.0,62,0.00,,,0.00,Wunderground v.1.15,2013-02-03 22:20:00,
2013-02-03 17:25:00,26.1,15.2,29.77,NNE,28,0.0,0.0,63,0.00,,,0.00,Wunderground v.1.15,2013-02-03 22:25:00,
2013-02-03 17:35:00,26.0,14.8,29.77,NNE,28,0.0,0.0,62,0.00,,,0.00,Wunderground v.1.15,2013-02-03 22:35:00,
2013-02-03 17:40:00,26.0,15.1,29.77,NNE,28,0.0,0.0,63,0.00,,,0.00,Wunderground v.1.15,2013-02-03 22:40:00,
2013-02-03 17:50:00,25.9,15.7,29.77,NNE,28,0.0,0.0,65,0.00,,,0.00,Wunderground v.1.15,2013-02-03 22:50:00,
2013-02-03 17:55:00,25.8,15.6,29.77,NNE,28,0.0,0.0,65,0.00,,,0.00,Wunderground v.1.15,2013-02-03 22:55:00,
2013-02-03 18:00:00,25.7,15.6,29.77,NNE,28,0.0,0.0,65,0.00,,,0.00,Wunderground v.1.15,2013-02-03 23:00:00,
2013-02-03 18:05:00,25.7,15.6,29.76,NNE,28,0.0,0.0,65,0.00,,,0.00,Wunderground v.1.15,2013-02-03 23:05:00,
2013-02-03 18:15:00,25.6,15.5,29.76,NNE,28,0.0,0.0,65,0.00,,,0.00,Wunderground v.1.15,2013-02-03 23:15:00,
2013-02-03 18:20:00,25.5,16.1,29.76,NNE,28,0.0,0.0,67,0.00,,,0.00,Wunderground v.1.15,2013-02-03 23:20:00,
2013-02-03 18:25:00,25.4,16.0,29.76,NNE,28,0.0,0.0,67,0.00,,,0.00,Wunderground v.1.15,2013-02-03 23:25:00,
2013-02-03 18:35:00,25.2,16.1,29.76,NNE,28,0.0,0.0,68,0.00,,,0.00,Wunderground v.1.15,2013-02-03 23:35:00,
2013-02-03 18:40:00,25.1,16.0,29.76,NNE,28,0.0,0.0,68,0.00,,,0.00,Wunderground v.1.15,2013-02-03 23:40:00,
2013-02-03 18:50:00,25.0,16.3,29.76,NNE,28,0.0,0.0,69,0.00,,,0.00,Wunderground v.1.15,2013-02-03 23:50:00,
2013-02-03 18:55:00,24.9,16.5,29.76,NNE,28,0.0,0.0,70,0.00,,,0.00,Wunderground v.1.15,2013-02-03 23:55:00,
2013-02-03 19:05:00,24.8,16.4,29.77,NNE,28,0.0,0.0,70,0.00,,,0.00,Wunderground v.1.15,2013-02-04 00:05:00,
2013-02-03 19:15:00,24.7,16.3,29.77,NNE,28,0.0,0.0,70,0.00,,,0.00,Wunderground v.1.15,2013-02-04 00:15:00,
2013-02-03 19:20:00,24.7,16.6,29.77,NNE,28,0.0,0.0,71,0.00,,,0.00,Wunderground v.1.15,2013-02-04 00:20:00,
2013-02-03 19:25:00,24.6,16.5,29.77,NNE,28,0.0,0.0,71,0.00,,,0.00,Wunderground v.1.15,2013-02-04 00:25:00,
2013-02-03 19:35:00,24.4,16.3,29.76,NNE,28,0.0,0.0,71,0.00,,,0.00,Wunderground v.1.15,2013-02-04 00:35:00,
2013-02-03 19:40:00,24.3,16.2,29.76,NNE,28,0.0,0.0,71,0.00,,,0.00,Wunderground v.1.15,2013-02-04 00:40:00,
2013-02-03 19:50:00,24.3,16.6,29.77,NNE,28,0.0,0.0,72,0.00,,,0.00,Wunderground v.1.15,2013-02-04 00:50:00,
2013-02-03 19:55:00,24.3,16.6,29.76,NNE,28,0.0,0.0,72,0.00,,,0.00,Wunderground v.1.15,2013-02-04 00:55:00,
2013-02-03 20:05:00,24.2,16.8,29.77,NNE,28,0.0,0.0,73,0.00,,,0.00,Wunderground v.1.15,2013-02-04 01:05:00,
2013-02-03 20:15:00,24.2,17.1,29.76,NNE,28,0.0,0.0,74,0.00,,,0.00,Wunderground v.1.15,2013-02-04 01:15:00,
2013-02-03 20:20:00,24.2,17.4,29.76,NNE,28,0.0,0.0,75,0.00,,,0.00,Wunderground v.1.15,2013-02-04 01:20:00,
2013-02-03 20:30:00,24.2,17.1,29.76,NNE,28,0.0,0.0,74,0.00,,,0.00,Wunderground v.1.15,2013-02-04 01:30:00,
2013-02-03 20:35:00,24.2,17.4,29.76,NNE,28,0.0,0.0,75,0.00,,,0.00,Wunderground v.1.15,2013-02-04 01:35:00,
2013-02-03 20:40:00,24.1,17.0,29.76,NNE,28,0.0,0.0,74,0.00,,,0.00,Wunderground v.1.15,2013-02-04 01:40:00,
2013-02-03 20:50:00,24.1,16.7,29.75,NNE,28,0.0,0.0,73,0.00,,,0.00,Wunderground v.1.15,2013-02-04 01:50:00,
2013-02-03 21:00:00,24.1,17.0,29.76,NNE,28,0.0,0.0,74,0.00,,,0.00,Wunderground v.1.15,2013-02-04 02:00:00,
2013-02-03 21:05:00,24.1,17.0,29.75,NNE,28,0.0,0.0,74,0.00,,,0.00,Wunderground v.1.15,2013-02-04 02:05:00,
2013-02-03 21:15:00,24.0,16.9,29.76,NNE,28,0.0,0.0,74,0.00,,,0.00,Wunderground v.1.15,2013-02-04 02:15:00,
2013-02-03 21:20:00,23.9,16.8,29.76,NNE,28,0.0,0.0,74,0.00,,,0.00,Wunderground v.1.15,2013-02-04 02:20:00,
2013-02-03 21:30:00,23.8,17.0,29.75,NNE,28,0.0,0.0,75,0.00,,,0.00,Wunderground v.1.15,2013-02-04 02:30:00,
2013-02-03 21:35:00,23.8,17.0,29.75,NNE,28,0.0,0.0,75,0.00,,,0.00,Wunderground v.1.15,2013-02-04 02:35:00,
2013-02-03 21:45:00,23.6,16.8,29.74,NNE,28,0.0,0.0,75,0.00,,,0.00,Wunderground v.1.15,2013-02-04 02:45:00,
2013-02-03 21:50:00,23.6,16.8,29.74,NNE,28,0.0,0.0,75,0.00,,,0.00,Wunderground v.1.15,2013-02-04 02:50:00,
2013-02-03 21:55:00,23.5,16.7,29.74,NNE,28,0.0,0.0,75,0.00,,,0.00,Wunderground v.1.15,2013-02-04 02:55:00,
2013-02-03 22:05:00,23.4,17.3,29.74,NNE,28,0.0,0.0,77,0.00,,,0.00,Wunderground v.1.15,2013-02-04 03:05:00,
2013-02-03 22:15:00,23.3,17.5,29.74,NNE,28,0.0,0.0,78,0.00,,,0.00,Wunderground v.1.15,2013-02-04 03:15:00,
2013-02-03 22:20:00,23.3,17.5,29.74,NNE,28,0.0,0.0,78,0.00,,,0.00,Wunderground v.1.15,2013-02-04 03:20:00,
2013-02-03 22:30:00,23.1,17.8,29.73,NNE,28,0.0,0.0,80,0.00,,,0.00,Wunderground v.1.15,2013-02-04 03:30:00,
2013-02-03 22:35:00,23.0,17.7,29.73,NNE,28,0.0,0.0,80,0.00,,,0.00,Wunderground v.1.15,2013-02-04 03:35:00,
2013-02-03 22:45:00,22.8,17.3,29.73,NNE,28,0.0,0.0,79,0.00,,,0.00,Wunderground v.1.15,2013-02-04 03:45:00,
2013-02-03 22:50:00,22.7,17.5,29.73,NNE,28,0.0,0.0,80,0.00,,,0.00,Wunderground v.1.15,2013-02-04 03:50:00,
2013-02-03 23:00:00,22.6,17.4,29.72,NNE,28,0.0,0.0,80,0.00,,,0.00,Wunderground v.1.15,2013-02-04 04:00:00,
2013-02-03 23:05:00,22.5,17.3,29.72,NNE,28,0.0,0.0,80,0.00,,,0.00,Wunderground v.1.15,2013-02-04 04:05:00,
2013-02-03 23:15:00,22.3,17.1,29.72,NNE,28,0.0,0.0,80,0.00,,,0.00,Wunderground v.1.15,2013-02-04 04:15:00,
2013-02-03 23:20:00,22.1,17.2,29.72,NNE,28,0.0,0.0,81,0.00,,,0.00,Wunderground v.1.15,2013-02-04 04:20:00,
2013-02-03 23:30:00,21.8,16.9,29.72,NNE,28,0.0,0.0,81,0.00,,,0.00,Wunderground v.1.15,2013-02-04 04:30:00,
2013-02-03 23:35:00,21.7,17.1,29.72,NNE,28,0.0,0.0,82,0.00,,,0.00,Wunderground v.1.15,2013-02-04 04:35:00,
2013-02-03 23:45:00,21.5,16.9,29.72,NNE,28,0.0,0.0,82,0.00,,,0.00,Wunderground v.1.15,2013-02-04 04:45:00,
2013-02-03 23:50:00,21.4,16.8,29.72,NNE,28,0.0,0.0,82,0.00,,,0.00,Wunderground v.1.15,2013-02-04 04:50:00,